createdAt,value
2023-03-28T00:01:11.892Z,0.90
2023-03-28T00:03:41.267Z,0.90
2023-03-28T00:06:13.211Z,0.90
2023-03-28T00:08:42.142Z,0.80
2023-03-28T00:11:12.547Z,0.80
2023-03-28T00:13:41.088Z,0.80
2023-03-28T00:16:13.321Z,0.80
2023-03-28T00:18:43.132Z,0.70
2023-03-28T00:21:24.204Z,0.70
2023-03-28T00:23:54.049Z,0.70
2023-03-28T00:26:26.546Z,0.70
2023-03-28T00:28:55.805Z,0.80
2023-03-28T00:31:25.481Z,0.70
2023-03-28T00:33:54.698Z,0.70
2023-03-28T00:36:26.683Z,0.70
2023-03-28T00:38:55.983Z,0.60
2023-03-28T00:41:26.619Z,0.60
2023-03-28T00:43:56.345Z,0.60
2023-03-28T00:46:29.784Z,0.60
2023-03-28T00:49:02.117Z,0.60
2023-03-28T00:51:36.622Z,0.60
2023-03-28T00:54:06.977Z,0.60
2023-03-28T00:56:37.998Z,0.60
2023-03-28T00:59:10.124Z,0.50
2023-03-28T01:01:38.763Z,0.50
2023-03-28T01:04:10.314Z,0.50
2023-03-28T01:06:46.385Z,0.50
2023-03-28T01:09:20.080Z,0.50
2023-03-28T01:11:53.203Z,0.50
2023-03-28T01:14:24.284Z,0.50
2023-03-28T01:16:56.351Z,0.50
2023-03-28T01:19:37.160Z,0.40
2023-03-28T01:22:38.095Z,0.50
2023-03-28T01:25:36.534Z,0.40
2023-03-28T01:28:13.603Z,0.40
2023-03-28T01:31:11.396Z,0.40
2023-03-28T01:34:34.113Z,0.40
2023-03-28T01:37:17.947Z,0.40
2023-03-28T01:40:11.185Z,0.30
2023-03-28T01:42:52.417Z,0.30
2023-03-28T01:45:28.379Z,0.30
2023-03-28T01:48:06.238Z,0.30
2023-03-28T01:50:44.127Z,0.40
2023-03-28T01:53:21.857Z,0.30
2023-03-28T01:55:59.056Z,0.30
2023-03-28T01:58:36.459Z,0.30
2023-03-28T02:01:15.587Z,0.30
2023-03-28T02:03:49.585Z,0.30
2023-03-28T02:06:40.924Z,0.20
2023-03-28T02:09:17.913Z,0.30
2023-03-28T02:12:09.251Z,0.30
2023-03-28T02:15:05.096Z,0.20
2023-03-28T02:17:39.816Z,0.30
2023-03-28T02:20:14.730Z,0.40
2023-03-28T02:23:18.333Z,0.20
2023-03-28T02:26:01.503Z,0.30
2023-03-28T02:28:50.121Z,0.30
2023-03-28T02:31:36.142Z,0.20
2023-03-28T02:34:05.736Z,0.20
2023-03-28T02:36:44.320Z,0.20
2023-03-28T02:39:33.450Z,0.20
2023-03-28T02:42:20.782Z,0.20
2023-03-28T02:45:08.084Z,0.20
2023-03-28T02:47:40.048Z,0.20
2023-03-28T02:50:20.735Z,0.10
2023-03-28T02:52:56.122Z,0.10
2023-03-28T02:55:32.913Z,0.10
2023-03-28T02:58:22.571Z,0.10
2023-03-28T03:00:51.851Z,0.10
2023-03-28T03:03:21.872Z,0.00
2023-03-28T03:05:50.703Z,0.00
2023-03-28T03:08:19.176Z,0.00
2023-03-28T03:10:47.829Z,0.00
2023-03-28T03:13:17.633Z,0.00
2023-03-28T03:15:46.253Z,0.00
2023-03-28T03:18:21.760Z,0.00
2023-03-28T03:20:50.335Z,0.00
2023-03-28T03:23:19.032Z,0.00
2023-03-28T03:25:50.486Z,0.00
2023-03-28T03:28:33.352Z,0.00
2023-03-28T03:31:04.323Z,-0.10
2023-03-28T03:33:54.097Z,-0.10
2023-03-28T03:36:30.325Z,-0.10
2023-03-28T03:39:01.239Z,-0.10
2023-03-28T03:41:29.985Z,-0.10
2023-03-28T03:43:59.830Z,-0.20
2023-03-28T03:46:31.543Z,-0.20
2023-03-28T03:49:00.248Z,-0.20
2023-03-28T03:51:28.663Z,-0.20
2023-03-28T03:53:59.402Z,-0.20
2023-03-28T03:56:39.278Z,-0.20
2023-03-28T03:59:09.265Z,-0.10
2023-03-28T04:01:41.435Z,-0.10
2023-03-28T04:04:22.504Z,-0.10
2023-03-28T04:07:09.472Z,-0.10
2023-03-28T04:09:38.395Z,-0.10
2023-03-28T04:12:08.957Z,-0.20
2023-03-28T04:15:09.749Z,-0.20
2023-03-28T04:17:41.210Z,-0.20
2023-03-28T04:20:14.971Z,-0.30
2023-03-28T04:23:01.246Z,-0.30
2023-03-28T04:25:34.091Z,-0.30
2023-03-28T04:28:09.354Z,-0.40
2023-03-28T04:30:45.278Z,-0.40
2023-03-28T04:33:40.150Z,-0.40
2023-03-28T04:36:11.244Z,-0.40
2023-03-28T04:38:41.671Z,-0.40
2023-03-28T04:41:26.789Z,-0.40
2023-03-28T04:44:03.912Z,-0.50
2023-03-28T04:46:41.589Z,-0.50
2023-03-28T04:49:15.044Z,-0.50
2023-03-28T04:51:43.624Z,-0.50
2023-03-28T04:54:12.142Z,-0.50
2023-03-28T04:56:50.188Z,-0.50
2023-03-28T04:59:25.900Z,-0.60
2023-03-28T05:01:56.770Z,-0.60
2023-03-28T05:04:45.295Z,-0.60
2023-03-28T05:07:15.667Z,-0.60
2023-03-28T05:09:44.530Z,-0.60
2023-03-28T05:12:13.207Z,-0.60
2023-03-28T05:15:05.628Z,-0.60
2023-03-28T05:17:41.491Z,-0.60
2023-03-28T05:20:21.113Z,-0.50
2023-03-28T05:22:54.065Z,-0.50
2023-03-28T05:25:22.947Z,-0.50
2023-03-28T05:27:51.959Z,-0.50
2023-03-28T05:30:21.062Z,-0.50
2023-03-28T05:32:55.033Z,-0.50
2023-03-28T05:35:23.636Z,-0.50
2023-03-28T05:37:53.017Z,-0.50
2023-03-28T05:40:21.629Z,-0.50
2023-03-28T05:42:51.800Z,-0.40
2023-03-28T05:45:22.679Z,-0.40
2023-03-28T05:47:52.436Z,-0.30
2023-03-28T05:50:23.934Z,-0.30
2023-03-28T05:52:57.862Z,-0.20
2023-03-28T05:55:26.411Z,-0.10
2023-03-28T05:57:54.881Z,-0.10
2023-03-28T06:00:25.301Z,0.00
2023-03-28T06:02:54.994Z,0.10
2023-03-28T06:05:34.404Z,0.20
2023-03-28T06:08:04.790Z,0.30
2023-03-28T06:10:33.401Z,0.40
2023-03-28T06:13:16.864Z,0.50
2023-03-28T06:15:47.973Z,0.60
2023-03-28T06:18:18.046Z,0.70
2023-03-28T06:20:49.765Z,0.90
2023-03-28T06:23:18.755Z,1.00
2023-03-28T06:25:47.456Z,1.20
2023-03-28T06:28:19.152Z,1.60
2023-03-28T06:31:15.819Z,1.60
2023-03-28T06:33:46.950Z,1.90
2023-03-28T06:36:16.819Z,2.10
2023-03-28T06:38:46.631Z,2.50
2023-03-28T06:41:15.214Z,2.80
2023-03-28T06:43:43.979Z,3.20
2023-03-28T06:46:33.136Z,3.60
2023-03-28T06:49:02.101Z,4.10
2023-03-28T06:51:50.509Z,4.50
2023-03-28T06:54:19.045Z,5.20
2023-03-28T06:56:47.581Z,5.60
2023-03-28T06:59:16.204Z,6.10
2023-03-28T07:01:47.593Z,6.30
2023-03-28T07:04:18.862Z,6.60
2023-03-28T07:06:49.898Z,6.70
2023-03-28T07:09:18.404Z,6.70
2023-03-28T07:11:59.390Z,6.60
2023-03-28T07:14:28.155Z,6.50
2023-03-28T07:16:57.218Z,6.50
2023-03-28T07:19:27.796Z,6.40
2023-03-28T07:21:58.434Z,6.30
2023-03-28T07:24:27.549Z,6.50
2023-03-28T07:27:15.446Z,6.80
2023-03-28T07:29:46.747Z,7.40
2023-03-28T07:32:16.120Z,8.10
2023-03-28T07:34:47.003Z,8.90
2023-03-28T07:37:22.876Z,9.70
2023-03-28T07:40:26.586Z,10.50
2023-03-28T07:42:55.310Z,11.30
2023-03-28T07:45:23.849Z,11.90
2023-03-28T07:47:53.517Z,12.30
2023-03-28T07:50:24.755Z,12.50
2023-03-28T07:52:57.800Z,12.80
2023-03-28T07:55:28.974Z,13.00
2023-03-28T07:57:58.396Z,13.20
2023-03-28T08:00:36.357Z,13.20
2023-03-28T08:03:24.258Z,13.10
2023-03-28T08:05:53.358Z,12.90
2023-03-28T08:08:25.364Z,12.80
2023-03-28T08:11:06.716Z,12.80
2023-03-28T08:13:35.725Z,12.90
2023-03-28T08:16:11.149Z,13.10
2023-03-28T08:18:39.713Z,13.50
2023-03-28T08:21:09.045Z,13.80
2023-03-28T08:23:38.985Z,13.90
2023-03-28T08:26:27.122Z,13.70
2023-03-28T08:28:59.483Z,13.20
2023-03-28T08:31:30.363Z,12.60
2023-03-28T08:34:05.629Z,11.90
2023-03-28T08:36:38.614Z,11.40
2023-03-28T08:39:15.839Z,11.20
2023-03-28T08:42:00.134Z,11.20
2023-03-28T08:44:45.574Z,11.40
2023-03-28T08:47:20.715Z,11.60
2023-03-28T08:49:57.722Z,11.80
2023-03-28T08:52:27.119Z,11.90
2023-03-28T08:55:02.410Z,12.10
2023-03-28T08:57:34.832Z,12.20
2023-03-28T09:00:12.771Z,12.40
2023-03-28T09:02:42.099Z,12.80
2023-03-28T09:05:23.379Z,13.20
2023-03-28T09:08:04.507Z,13.50
2023-03-28T09:10:40.689Z,13.70
2023-03-28T09:13:30.056Z,13.70
2023-03-28T09:16:19.080Z,13.60
2023-03-28T09:19:36.886Z,13.30
2023-03-28T09:22:47.143Z,12.90
2023-03-28T09:25:32.424Z,12.60
2023-03-28T09:28:10.953Z,12.40
2023-03-28T09:30:45.216Z,12.10
2023-03-28T09:33:16.300Z,12.10
2023-03-28T09:35:48.241Z,12.00
2023-03-28T09:38:22.282Z,12.00
2023-03-28T09:40:56.163Z,11.90
2023-03-28T09:43:32.437Z,11.70
2023-03-28T09:46:30.137Z,11.50
2023-03-28T09:49:16.197Z,11.40
2023-03-28T09:51:46.863Z,11.30
2023-03-28T09:54:15.538Z,11.10
2023-03-28T09:56:46.952Z,11.00
2023-03-28T09:59:29.186Z,11.00
2023-03-28T10:02:03.080Z,10.80
2023-03-28T10:04:39.489Z,10.80
2023-03-28T10:07:28.204Z,10.80
2023-03-28T10:10:08.684Z,10.70
2023-03-28T10:12:41.531Z,10.60
2023-03-28T10:15:31.353Z,10.60
2023-03-28T10:18:20.319Z,10.60
2023-03-28T10:20:58.130Z,10.60
2023-03-28T10:23:26.966Z,10.70
2023-03-28T10:26:06.526Z,10.60
2023-03-28T10:28:37.840Z,10.40
2023-03-28T10:31:08.839Z,10.30
2023-03-28T10:33:42.621Z,10.30
2023-03-28T10:36:44.549Z,10.10
2023-03-28T10:39:23.699Z,10.00
2023-03-28T10:42:11.916Z,10.00
2023-03-28T10:45:02.998Z,9.90
2023-03-28T10:47:36.717Z,9.80
2023-03-28T10:50:23.430Z,9.80
2023-03-28T10:52:59.933Z,9.80
2023-03-28T10:55:38.645Z,9.80
2023-03-28T10:58:15.634Z,9.70
2023-03-28T11:00:55.193Z,9.80
2023-03-28T11:03:44.086Z,9.90
2023-03-28T11:06:20.412Z,9.80
2023-03-28T11:08:58.923Z,9.70
2023-03-28T11:12:06.466Z,9.80
2023-03-28T11:14:44.573Z,10.00
2023-03-28T11:17:27.710Z,10.30
2023-03-28T11:20:23.698Z,10.70
2023-03-28T11:23:41.322Z,11.00
2023-03-28T11:26:33.950Z,11.40
2023-03-28T11:29:42.093Z,11.80
2023-03-28T11:32:18.119Z,11.90
2023-03-28T11:34:58.946Z,11.90
2023-03-28T11:37:33.691Z,11.80
2023-03-28T11:40:11.665Z,11.90
2023-03-28T11:42:57.227Z,12.00
2023-03-28T11:45:46.752Z,12.10
2023-03-28T11:48:22.576Z,12.20
2023-03-28T11:50:59.962Z,12.40
2023-03-28T11:53:44.054Z,12.60
2023-03-28T11:56:26.609Z,12.70
2023-03-28T11:59:10.665Z,12.80
2023-03-28T12:01:42.271Z,12.70
2023-03-28T12:04:16.223Z,12.50
2023-03-28T12:07:02.302Z,12.30
2023-03-28T12:09:44.751Z,12.50
2023-03-28T12:12:19.754Z,12.40
2023-03-28T12:14:53.703Z,12.40
2023-03-28T12:17:48.383Z,12.60
2023-03-28T12:20:23.890Z,12.50
2023-03-28T12:22:57.416Z,12.50
2023-03-28T12:25:55.084Z,12.40
2023-03-28T12:28:32.033Z,12.20
2023-03-28T12:31:10.507Z,12.20
2023-03-28T12:33:48.805Z,12.10
2023-03-28T12:36:37.447Z,12.00
2023-03-28T12:39:19.800Z,11.90
2023-03-28T12:41:52.326Z,11.90
2023-03-28T12:44:25.374Z,11.80
2023-03-28T12:47:00.726Z,11.80
2023-03-28T12:49:40.392Z,11.70
2023-03-28T12:52:15.968Z,11.50
2023-03-28T12:54:58.326Z,11.30
2023-03-28T12:57:47.510Z,11.10
2023-03-28T13:00:47.825Z,10.90
2023-03-28T13:03:46.688Z,10.60
2023-03-28T13:06:29.108Z,10.30
2023-03-28T13:09:08.779Z,10.10
2023-03-28T13:11:44.962Z,10.10
2023-03-28T13:14:35.800Z,9.90
2023-03-28T13:17:19.806Z,9.80
2023-03-28T13:19:52.508Z,9.80
2023-03-28T13:22:30.794Z,9.70
2023-03-28T13:25:28.502Z,9.60
2023-03-28T13:28:00.587Z,9.60
2023-03-28T13:30:32.180Z,9.50
2023-03-28T13:33:03.354Z,9.50
2023-03-28T13:36:18.325Z,9.40
2023-03-28T13:38:48.493Z,9.40
2023-03-28T13:41:55.208Z,9.40
2023-03-28T13:44:29.939Z,9.40
2023-03-28T13:46:59.801Z,9.50
2023-03-28T13:49:42.046Z,9.60
2023-03-28T13:52:15.949Z,9.70
2023-03-28T13:54:45.836Z,9.90
2023-03-28T13:57:18.110Z,10.10
2023-03-28T13:59:55.960Z,10.40
2023-03-28T14:02:36.956Z,10.90
2023-03-28T14:05:14.269Z,11.20
2023-03-28T14:07:42.986Z,11.40
2023-03-28T14:10:32.312Z,11.50
2023-03-28T14:13:04.119Z,11.50
2023-03-28T14:15:36.713Z,11.50
2023-03-28T14:18:08.303Z,11.50
2023-03-28T14:20:39.668Z,11.50
2023-03-28T14:23:08.902Z,11.50
2023-03-28T14:25:37.452Z,11.50
2023-03-28T14:28:09.764Z,11.50
2023-03-28T14:30:42.642Z,11.40
2023-03-28T14:33:21.402Z,11.30
2023-03-28T14:36:01.733Z,11.20
2023-03-28T14:38:33.495Z,11.10
2023-03-28T14:41:14.255Z,11.00
2023-03-28T14:43:42.948Z,10.90
2023-03-28T14:46:12.320Z,10.80
2023-03-28T14:48:43.428Z,10.70
2023-03-28T14:51:14.671Z,10.70
2023-03-28T14:53:46.306Z,10.70
2023-03-28T14:56:19.332Z,10.70
2023-03-28T14:58:49.912Z,10.60
2023-03-28T15:01:23.006Z,10.80
2023-03-28T15:03:58.576Z,10.60
2023-03-28T15:06:29.114Z,10.60
2023-03-28T15:08:59.773Z,10.60
2023-03-28T15:11:32.435Z,10.40
2023-03-28T15:14:04.338Z,10.40
2023-03-28T15:16:37.839Z,10.50
2023-03-28T15:19:15.076Z,10.50
2023-03-28T15:21:49.299Z,10.50
2023-03-28T15:24:19.823Z,10.60
2023-03-28T15:26:53.992Z,10.60
2023-03-28T15:29:25.128Z,10.60
2023-03-28T15:31:56.610Z,10.70
2023-03-28T15:34:28.270Z,10.70
2023-03-28T15:37:00.937Z,10.70
2023-03-28T15:39:31.896Z,10.70
2023-03-28T15:42:02.170Z,10.60
2023-03-28T15:44:33.100Z,10.60
2023-03-28T15:47:04.746Z,10.50
2023-03-28T15:49:38.513Z,10.50
2023-03-28T15:52:15.858Z,10.40
2023-03-28T15:54:46.649Z,10.40
2023-03-28T15:57:17.164Z,10.30
2023-03-28T15:59:50.980Z,10.20
2023-03-28T16:02:33.100Z,10.10
2023-03-28T16:05:05.493Z,10.10
2023-03-28T16:07:36.247Z,10.00
2023-03-28T16:10:05.636Z,10.00
2023-03-28T16:12:42.524Z,9.90
2023-03-28T16:15:32.694Z,9.90
2023-03-28T16:22:53.810Z,9.70
2023-03-28T16:25:22.415Z,9.60
2023-03-28T16:31:39.402Z,9.50
2023-03-28T16:34:10.078Z,9.40
2023-03-28T16:36:39.271Z,9.20
2023-03-28T16:39:09.169Z,9.10
2023-03-28T16:41:37.741Z,9.10
2023-03-28T16:44:06.608Z,9.00
2023-03-28T16:46:35.261Z,8.90
2023-03-28T16:49:03.982Z,8.80
2023-03-28T16:51:32.562Z,8.60
2023-03-28T16:54:01.126Z,8.50
2023-03-28T16:56:31.378Z,8.40
2023-03-28T16:58:59.969Z,8.20
2023-03-28T17:01:28.588Z,8.10
2023-03-28T17:03:57.149Z,8.10
2023-03-28T17:06:27.385Z,7.90
2023-03-28T17:08:56.382Z,7.90
2023-03-28T17:11:26.169Z,7.80
2023-03-28T17:13:56.467Z,7.80
2023-03-28T17:16:25.112Z,7.70
2023-03-28T17:18:54.300Z,7.60
2023-03-28T17:21:22.867Z,7.60
2023-03-28T17:23:52.730Z,7.60
2023-03-28T17:26:21.564Z,7.50
2023-03-28T17:28:51.582Z,7.50
2023-03-28T17:31:22.018Z,7.50
2023-03-28T17:33:51.108Z,7.50
2023-03-28T17:36:22.004Z,7.60
2023-03-28T17:38:51.545Z,7.40
2023-03-28T17:41:23.070Z,7.50
2023-03-28T17:43:52.855Z,7.40
2023-03-28T17:46:23.261Z,7.40
2023-03-28T17:48:52.985Z,7.40
2023-03-28T17:51:21.854Z,7.30
2023-03-28T17:53:50.706Z,7.40
2023-03-28T17:56:19.542Z,7.40
2023-03-28T17:58:48.100Z,7.40
2023-03-28T18:01:19.615Z,7.40
2023-03-28T18:03:49.911Z,7.40
2023-03-28T18:06:41.874Z,7.40
2023-03-28T18:09:10.750Z,7.40
2023-03-28T18:11:39.853Z,7.40
2023-03-28T18:14:09.141Z,7.40
2023-03-28T18:16:38.842Z,7.40
2023-03-28T18:19:12.467Z,7.60
2023-03-28T18:21:41.345Z,7.50
2023-03-28T18:24:09.909Z,7.50
2023-03-28T18:26:38.450Z,7.50
2023-03-28T18:29:07.377Z,7.40
2023-03-28T18:31:36.808Z,7.60
2023-03-28T18:34:08.006Z,7.50
2023-03-28T18:36:40.543Z,7.50
2023-03-28T18:39:10.367Z,7.50
2023-03-28T18:41:39.298Z,7.50
2023-03-28T18:44:08.091Z,7.40
2023-03-28T18:46:36.883Z,7.60
2023-03-28T18:49:06.501Z,7.50
2023-03-28T18:51:36.648Z,7.40
2023-03-28T18:54:05.361Z,7.50
2023-03-28T18:56:34.750Z,7.50
2023-03-28T18:59:04.029Z,7.40
2023-03-28T19:01:34.165Z,7.40
2023-03-28T19:04:02.887Z,7.50
2023-03-28T19:06:31.587Z,7.50
2023-03-28T19:09:01.614Z,7.40
2023-03-28T19:11:30.198Z,7.40
2023-03-28T19:13:58.828Z,7.40
2023-03-28T19:16:27.795Z,7.40
2023-03-28T19:18:56.350Z,7.40
2023-03-28T19:21:25.022Z,7.30
2023-03-28T19:23:53.802Z,7.30
2023-03-28T19:26:23.821Z,7.20
2023-03-28T19:28:53.483Z,7.30
2023-03-28T19:31:24.160Z,7.20
2023-03-28T19:33:53.173Z,7.20
2023-03-28T19:36:21.883Z,7.20
2023-03-28T19:38:50.486Z,7.20
2023-03-28T19:41:20.946Z,7.10
2023-03-28T19:43:51.232Z,7.10
2023-03-28T19:46:26.071Z,7.00
2023-03-28T19:48:58.583Z,6.80
2023-03-28T19:51:27.470Z,6.80
2023-03-28T19:53:57.009Z,6.70
2023-03-28T19:56:26.607Z,6.70
2023-03-28T19:58:56.593Z,6.60
2023-03-28T20:01:25.243Z,6.60
2023-03-28T20:03:53.837Z,6.50
2023-03-28T20:06:23.528Z,6.50
2023-03-28T20:08:52.425Z,6.50
2023-03-28T20:11:21.993Z,6.60
2023-03-28T20:13:50.741Z,6.40
2023-03-28T20:16:20.766Z,6.30
2023-03-28T20:18:49.352Z,6.30
2023-03-28T20:21:18.076Z,6.30
2023-03-28T20:23:46.667Z,6.30
2023-03-28T20:26:18.271Z,6.30
2023-03-28T20:28:49.962Z,6.30
2023-03-28T20:31:20.603Z,6.30
2023-03-28T20:33:49.476Z,6.30
2023-03-28T20:36:17.991Z,6.30
2023-03-28T20:38:46.639Z,6.30
2023-03-28T20:41:16.917Z,6.30
2023-03-28T20:43:47.871Z,6.30
2023-03-28T20:46:19.629Z,6.30
2023-03-28T20:48:53.031Z,6.30
2023-03-28T20:51:23.595Z,6.30
2023-03-28T20:53:54.912Z,6.30
2023-03-28T20:56:23.999Z,6.30
2023-03-28T20:58:53.075Z,6.30
2023-03-28T21:01:25.293Z,6.20
2023-03-28T21:03:57.963Z,6.20
2023-03-28T21:06:29.413Z,6.20
2023-03-28T21:09:00.452Z,6.20
2023-03-28T21:11:30.799Z,6.20
2023-03-28T21:14:01.072Z,6.20
2023-03-28T21:16:31.366Z,6.20
2023-03-28T21:19:02.552Z,6.20
2023-03-28T21:21:33.867Z,6.20
2023-03-28T21:24:03.586Z,6.10
2023-03-28T21:26:33.038Z,6.10
2023-03-28T21:29:01.652Z,6.10
2023-03-28T21:31:32.113Z,6.10
2023-03-28T21:34:02.149Z,6.00
2023-03-28T21:36:30.954Z,6.00
2023-03-28T21:38:59.510Z,6.00
2023-03-28T21:41:28.317Z,6.00
2023-03-28T21:43:56.976Z,5.90
2023-03-28T21:46:26.068Z,6.10
2023-03-28T21:48:54.653Z,5.90
2023-03-28T21:51:25.781Z,5.90
2023-03-28T21:53:54.331Z,6.00
2023-03-28T21:56:23.084Z,5.90
2023-03-28T21:58:51.580Z,5.90
2023-03-28T22:01:20.588Z,5.90
2023-03-28T22:03:49.536Z,5.90
2023-03-28T22:06:19.249Z,5.90
2023-03-28T22:08:52.407Z,6.00
2023-03-28T22:11:27.418Z,5.90
2023-03-28T22:14:01.365Z,5.90
2023-03-28T22:16:31.398Z,6.00
2023-03-28T22:19:00.732Z,5.90
2023-03-28T22:21:31.500Z,5.90
2023-03-28T22:24:03.520Z,5.90
2023-03-28T22:26:32.525Z,5.90
2023-03-28T22:29:01.261Z,5.90
2023-03-28T22:31:29.902Z,5.90
2023-03-28T22:33:58.464Z,5.90
2023-03-28T22:36:27.066Z,5.90
2023-03-28T22:38:56.960Z,5.80
2023-03-28T22:41:31.905Z,5.90
2023-03-28T22:44:00.634Z,5.90
2023-03-28T22:46:29.984Z,5.90
2023-03-28T22:48:59.050Z,5.90
2023-03-28T22:51:29.910Z,5.90
2023-03-28T22:54:01.718Z,5.90
2023-03-28T22:56:31.700Z,5.80
2023-03-28T22:59:01.290Z,5.80
2023-03-28T23:01:30.404Z,5.90
2023-03-28T23:03:59.186Z,5.80
2023-03-28T23:06:28.548Z,5.90
2023-03-28T23:08:58.533Z,5.90
2023-03-28T23:11:27.581Z,5.90
2023-03-28T23:13:57.670Z,5.90
2023-03-28T23:16:26.394Z,5.90
2023-03-28T23:18:55.022Z,5.90
2023-03-28T23:21:24.458Z,5.90
2023-03-28T23:23:53.324Z,5.90
2023-03-28T23:26:22.297Z,5.90
2023-03-28T23:28:51.063Z,5.90
2023-03-28T23:31:20.964Z,6.10
2023-03-28T23:33:49.569Z,5.90
2023-03-28T23:36:20.615Z,5.90
2023-03-28T23:38:49.978Z,6.00
2023-03-28T23:41:18.518Z,6.00
2023-03-28T23:43:46.999Z,6.00
2023-03-28T23:46:15.753Z,5.90
2023-03-28T23:48:45.994Z,6.00
2023-03-28T23:51:19.326Z,6.00
2023-03-28T23:53:47.830Z,6.00
2023-03-28T23:56:16.534Z,6.00
2023-03-28T23:58:45.157Z,6.00
